sensor_id;sensor_type;location;lat;lon;timestamp;P1;durP1;ratioP1;P2;durP2;ratioP2
76176;SDS011;64938;47.696;8.066;2023-06-14T00:01:53;4.93;;;4.07;;
76176;SDS011;64938;47.696;8.066;2023-06-14T00:04:28;7.33;;;4.27;;
76176;SDS011;64938;47.696;8.066;2023-06-14T00:06:55;4.40;;;4.00;;
76176;SDS011;64938;47.696;8.066;2023-06-14T00:09:22;4.43;;;4.03;;
76176;SDS011;64938;47.696;8.066;2023-06-14T00:11:47;5.23;;;4.10;;
76176;SDS011;64938;47.696;8.066;2023-06-14T00:14:13;4.50;;;4.10;;
76176;SDS011;64938;47.696;8.066;2023-06-14T00:16:39;5.93;;;3.90;;
76176;SDS011;64938;47.696;8.066;2023-06-14T00:19:08;4.40;;;4.07;;
76176;SDS011;64938;47.696;8.066;2023-06-14T00:21:35;5.43;;;3.77;;
76176;SDS011;64938;47.696;8.066;2023-06-14T00:24:03;4.80;;;3.80;;
76176;SDS011;64938;47.696;8.066;2023-06-14T00:26:29;5.30;;;4.03;;
76176;SDS011;64938;47.696;8.066;2023-06-14T00:28:55;5.50;;;4.00;;
76176;SDS011;64938;47.696;8.066;2023-06-14T00:31:23;5.90;;;4.30;;
76176;SDS011;64938;47.696;8.066;2023-06-14T00:33:49;3.97;;;3.40;;
76176;SDS011;64938;47.696;8.066;2023-06-14T00:36:15;4.87;;;4.00;;
76176;SDS011;64938;47.696;8.066;2023-06-14T00:38:40;5.00;;;4.07;;
76176;SDS011;64938;47.696;8.066;2023-06-14T00:41:06;5.37;;;3.70;;
76176;SDS011;64938;47.696;8.066;2023-06-14T00:43:32;4.80;;;4.40;;
76176;SDS011;64938;47.696;8.066;2023-06-14T00:45:59;5.13;;;4.30;;
76176;SDS011;64938;47.696;8.066;2023-06-14T00:48:25;4.67;;;4.20;;
76176;SDS011;64938;47.696;8.066;2023-06-14T00:50:51;4.43;;;4.03;;
76176;SDS011;64938;47.696;8.066;2023-06-14T00:53:17;4.50;;;4.10;;
76176;SDS011;64938;47.696;8.066;2023-06-14T00:55:44;4.97;;;4.13;;
76176;SDS011;64938;47.696;8.066;2023-06-14T00:58:10;4.90;;;3.67;;
76176;SDS011;64938;47.696;8.066;2023-06-14T01:00:36;4.40;;;4.00;;
76176;SDS011;64938;47.696;8.066;2023-06-14T01:03:01;6.10;;;4.13;;
76176;SDS011;64938;47.696;8.066;2023-06-14T01:05:27;4.83;;;4.07;;
76176;SDS011;64938;47.696;8.066;2023-06-14T01:08:05;5.50;;;4.27;;
76176;SDS011;64938;47.696;8.066;2023-06-14T01:13:05;4.13;;;3.77;;
76176;SDS011;64938;47.696;8.066;2023-06-14T01:15:39;4.13;;;3.73;;
76176;SDS011;64938;47.696;8.066;2023-06-14T01:18:05;5.73;;;4.13;;
76176;SDS011;64938;47.696;8.066;2023-06-14T01:20:31;3.80;;;3.50;;
76176;SDS011;64938;47.696;8.066;2023-06-14T01:22:58;6.23;;;3.83;;
76176;SDS011;64938;47.696;8.066;2023-06-14T01:25:24;4.67;;;4.07;;
76176;SDS011;64938;47.696;8.066;2023-06-14T01:27:58;4.10;;;3.77;;
76176;SDS011;64938;47.696;8.066;2023-06-14T01:30:25;4.00;;;3.70;;
76176;SDS011;64938;47.696;8.066;2023-06-14T01:32:53;4.30;;;3.90;;
76176;SDS011;64938;47.696;8.066;2023-06-14T01:35:20;4.70;;;4.30;;
76176;SDS011;64938;47.696;8.066;2023-06-14T01:37:47;4.63;;;3.90;;
76176;SDS011;64938;47.696;8.066;2023-06-14T01:40:13;4.03;;;3.53;;
76176;SDS011;64938;47.696;8.066;2023-06-14T01:42:40;5.03;;;4.23;;
76176;SDS011;64938;47.696;8.066;2023-06-14T01:45:06;4.83;;;3.90;;
76176;SDS011;64938;47.696;8.066;2023-06-14T01:47:33;4.67;;;3.83;;
76176;SDS011;64938;47.696;8.066;2023-06-14T01:49:59;4.20;;;3.80;;
76176;SDS011;64938;47.696;8.066;2023-06-14T01:52:25;3.90;;;3.60;;
76176;SDS011;64938;47.696;8.066;2023-06-14T01:54:50;4.03;;;3.73;;
76176;SDS011;64938;47.696;8.066;2023-06-14T01:57:16;5.57;;;3.93;;
76176;SDS011;64938;47.696;8.066;2023-06-14T01:59:42;4.60;;;4.17;;
76176;SDS011;64938;47.696;8.066;2023-06-14T02:02:08;7.23;;;4.40;;
76176;SDS011;64938;47.696;8.066;2023-06-14T02:04:33;3.90;;;3.60;;
76176;SDS011;64938;47.696;8.066;2023-06-14T02:06:59;4.37;;;3.93;;
76176;SDS011;64938;47.696;8.066;2023-06-14T02:09:28;3.70;;;3.40;;
76176;SDS011;64938;47.696;8.066;2023-06-14T02:11:54;5.27;;;4.10;;
76176;SDS011;64938;47.696;8.066;2023-06-14T02:14:20;4.63;;;4.17;;
76176;SDS011;64938;47.696;8.066;2023-06-14T02:16:45;5.73;;;3.47;;
76176;SDS011;64938;47.696;8.066;2023-06-14T02:19:17;5.23;;;4.17;;
76176;SDS011;64938;47.696;8.066;2023-06-14T02:21:44;5.73;;;3.83;;
76176;SDS011;64938;47.696;8.066;2023-06-14T02:24:10;4.30;;;3.90;;
76176;SDS011;64938;47.696;8.066;2023-06-14T02:26:35;4.10;;;3.70;;
76176;SDS011;64938;47.696;8.066;2023-06-14T02:29:06;4.50;;;4.07;;
76176;SDS011;64938;47.696;8.066;2023-06-14T02:31:34;4.20;;;3.80;;
76176;SDS011;64938;47.696;8.066;2023-06-14T02:34:01;5.30;;;4.07;;
76176;SDS011;64938;47.696;8.066;2023-06-14T02:36:26;4.40;;;4.00;;
76176;SDS011;64938;47.696;8.066;2023-06-14T02:38:54;4.60;;;3.77;;
76176;SDS011;64938;47.696;8.066;2023-06-14T02:41:22;8.93;;;4.20;;
76176;SDS011;64938;47.696;8.066;2023-06-14T02:43:49;4.60;;;3.90;;
76176;SDS011;64938;47.696;8.066;2023-06-14T02:46:14;4.37;;;3.87;;
76176;SDS011;64938;47.696;8.066;2023-06-14T02:48:40;4.47;;;3.90;;
76176;SDS011;64938;47.696;8.066;2023-06-14T02:51:05;4.10;;;3.70;;
76176;SDS011;64938;47.696;8.066;2023-06-14T02:53:32;6.57;;;4.03;;
76176;SDS011;64938;47.696;8.066;2023-06-14T02:55:57;6.03;;;3.93;;
76176;SDS011;64938;47.696;8.066;2023-06-14T02:58:23;4.97;;;3.80;;
76176;SDS011;64938;47.696;8.066;2023-06-14T03:00:50;4.20;;;3.80;;
76176;SDS011;64938;47.696;8.066;2023-06-14T03:03:17;7.03;;;4.13;;
76176;SDS011;64938;47.696;8.066;2023-06-14T03:05:44;4.67;;;4.03;;
76176;SDS011;64938;47.696;8.066;2023-06-14T03:08:13;4.27;;;3.87;;
76176;SDS011;64938;47.696;8.066;2023-06-14T03:10:48;3.67;;;3.30;;
76176;SDS011;64938;47.696;8.066;2023-06-14T03:13:15;7.67;;;3.93;;
76176;SDS011;64938;47.696;8.066;2023-06-14T03:15:42;3.90;;;3.40;;
76176;SDS011;64938;47.696;8.066;2023-06-14T03:18:10;4.07;;;3.77;;
76176;SDS011;64938;47.696;8.066;2023-06-14T03:20:37;3.63;;;3.27;;
76176;SDS011;64938;47.696;8.066;2023-06-14T03:23:04;4.10;;;3.70;;
76176;SDS011;64938;47.696;8.066;2023-06-14T03:25:31;5.97;;;3.83;;
76176;SDS011;64938;47.696;8.066;2023-06-14T03:27:58;4.70;;;3.63;;
76176;SDS011;64938;47.696;8.066;2023-06-14T03:30:29;3.90;;;3.57;;
76176;SDS011;64938;47.696;8.066;2023-06-14T03:32:55;5.50;;;3.63;;
76176;SDS011;64938;47.696;8.066;2023-06-14T03:35:21;4.50;;;3.70;;
76176;SDS011;64938;47.696;8.066;2023-06-14T03:37:47;4.20;;;3.80;;
76176;SDS011;64938;47.696;8.066;2023-06-14T03:40:14;4.47;;;4.07;;
76176;SDS011;64938;47.696;8.066;2023-06-14T03:42:41;4.07;;;3.67;;
76176;SDS011;64938;47.696;8.066;2023-06-14T03:45:07;3.63;;;3.33;;
76176;SDS011;64938;47.696;8.066;2023-06-14T03:47:34;3.53;;;3.23;;
76176;SDS011;64938;47.696;8.066;2023-06-14T03:50:00;6.63;;;4.00;;
76176;SDS011;64938;47.696;8.066;2023-06-14T03:52:26;4.27;;;3.87;;
76176;SDS011;64938;47.696;8.066;2023-06-14T03:54:52;4.43;;;3.77;;
76176;SDS011;64938;47.696;8.066;2023-06-14T03:57:18;4.33;;;3.97;;
76176;SDS011;64938;47.696;8.066;2023-06-14T03:59:45;4.47;;;4.07;;
76176;SDS011;64938;47.696;8.066;2023-06-14T04:02:10;4.20;;;3.80;;
76176;SDS011;64938;47.696;8.066;2023-06-14T04:04:37;4.43;;;4.03;;
76176;SDS011;64938;47.696;8.066;2023-06-14T04:07:02;5.37;;;4.13;;
76176;SDS011;64938;47.696;8.066;2023-06-14T04:09:29;5.40;;;4.80;;
76176;SDS011;64938;47.696;8.066;2023-06-14T04:11:55;4.43;;;4.03;;
76176;SDS011;64938;47.696;8.066;2023-06-14T04:14:21;4.50;;;4.00;;
76176;SDS011;64938;47.696;8.066;2023-06-14T04:16:47;4.37;;;3.97;;
76176;SDS011;64938;47.696;8.066;2023-06-14T04:19:13;4.63;;;3.90;;
76176;SDS011;64938;47.696;8.066;2023-06-14T04:21:41;4.57;;;4.17;;
76176;SDS011;64938;47.696;8.066;2023-06-14T04:24:07;4.10;;;3.70;;
76176;SDS011;64938;47.696;8.066;2023-06-14T04:26:39;4.00;;;3.60;;
76176;SDS011;64938;47.696;8.066;2023-06-14T04:29:06;4.17;;;3.77;;
76176;SDS011;64938;47.696;8.066;2023-06-14T04:31:32;4.00;;;3.50;;
76176;SDS011;64938;47.696;8.066;2023-06-14T04:34:04;4.47;;;4.07;;
76176;SDS011;64938;47.696;8.066;2023-06-14T04:36:31;4.10;;;3.67;;
76176;SDS011;64938;47.696;8.066;2023-06-14T04:39:02;3.97;;;3.60;;
76176;SDS011;64938;47.696;8.066;2023-06-14T04:41:32;9.07;;;4.00;;
76176;SDS011;64938;47.696;8.066;2023-06-14T04:44:01;4.35;;;3.97;;
76176;SDS011;64938;47.696;8.066;2023-06-14T04:46:30;4.65;;;3.70;;
76176;SDS011;64938;47.696;8.066;2023-06-14T04:48:57;4.15;;;3.75;;
76176;SDS011;64938;47.696;8.066;2023-06-14T04:51:24;4.30;;;3.90;;
76176;SDS011;64938;47.696;8.066;2023-06-14T04:53:55;4.03;;;3.65;;
76176;SDS011;64938;47.696;8.066;2023-06-14T04:56:23;3.70;;;3.40;;
76176;SDS011;64938;47.696;8.066;2023-06-14T04:58:50;3.72;;;3.42;;
76176;SDS011;64938;47.696;8.066;2023-06-14T05:01:16;3.17;;;2.88;;
76176;SDS011;64938;47.696;8.066;2023-06-14T05:03:41;4.28;;;3.88;;
76176;SDS011;64938;47.696;8.066;2023-06-14T05:06:10;4.35;;;3.38;;
76176;SDS011;64938;47.696;8.066;2023-06-14T05:08:36;4.22;;;3.53;;
76176;SDS011;64938;47.696;8.066;2023-06-14T05:11:02;3.60;;;3.30;;
76176;SDS011;64938;47.696;8.066;2023-06-14T05:13:27;3.95;;;3.63;;
76176;SDS011;64938;47.696;8.066;2023-06-14T05:15:53;3.95;;;3.30;;
76176;SDS011;64938;47.696;8.066;2023-06-14T05:18:20;3.53;;;3.25;;
76176;SDS011;64938;47.696;8.066;2023-06-14T05:20:45;4.10;;;3.75;;
76176;SDS011;64938;47.696;8.066;2023-06-14T05:23:13;3.97;;;3.58;;
76176;SDS011;64938;47.696;8.066;2023-06-14T05:25:41;9.02;;;3.58;;
76176;SDS011;64938;47.696;8.066;2023-06-14T05:28:08;3.53;;;3.22;;
76176;SDS011;64938;47.696;8.066;2023-06-14T05:30:33;3.72;;;3.42;;
76176;SDS011;64938;47.696;8.066;2023-06-14T05:32:59;4.00;;;3.60;;
76176;SDS011;64938;47.696;8.066;2023-06-14T05:35:25;3.30;;;3.00;;
76176;SDS011;64938;47.696;8.066;2023-06-14T05:37:52;4.38;;;3.22;;
76176;SDS011;64938;47.696;8.066;2023-06-14T05:40:19;4.30;;;3.70;;
76176;SDS011;64938;47.696;8.066;2023-06-14T05:42:45;4.28;;;3.50;;
76176;SDS011;64938;47.696;8.066;2023-06-14T05:45:11;3.70;;;3.40;;
76176;SDS011;64938;47.696;8.066;2023-06-14T05:47:36;3.95;;;3.70;;
76176;SDS011;64938;47.696;8.066;2023-06-14T05:50:02;5.00;;;3.92;;
76176;SDS011;64938;47.696;8.066;2023-06-14T05:52:28;3.55;;;3.25;;
76176;SDS011;64938;47.696;8.066;2023-06-14T05:54:54;3.60;;;3.30;;
76176;SDS011;64938;47.696;8.066;2023-06-14T05:57:20;3.85;;;3.55;;
76176;SDS011;64938;47.696;8.066;2023-06-14T05:59:46;3.88;;;3.58;;
76176;SDS011;64938;47.696;8.066;2023-06-14T06:02:12;5.85;;;3.65;;
76176;SDS011;64938;47.696;8.066;2023-06-14T06:04:37;3.80;;;3.40;;
76176;SDS011;64938;47.696;8.066;2023-06-14T06:07:03;3.60;;;3.30;;
76176;SDS011;64938;47.696;8.066;2023-06-14T06:09:29;4.53;;;3.25;;
76176;SDS011;64938;47.696;8.066;2023-06-14T06:11:55;3.65;;;3.28;;
76176;SDS011;64938;47.696;8.066;2023-06-14T06:14:22;3.75;;;3.45;;
76176;SDS011;64938;47.696;8.066;2023-06-14T06:16:48;4.57;;;3.85;;
76176;SDS011;64938;47.696;8.066;2023-06-14T06:19:16;5.32;;;3.95;;
76176;SDS011;64938;47.696;8.066;2023-06-14T06:21:44;4.22;;;3.83;;
76176;SDS011;64938;47.696;8.066;2023-06-14T06:24:10;3.67;;;3.35;;
76176;SDS011;64938;47.696;8.066;2023-06-14T06:26:35;4.72;;;3.67;;
76176;SDS011;64938;47.696;8.066;2023-06-14T06:29:03;4.35;;;4.05;;
76176;SDS011;64938;47.696;8.066;2023-06-14T06:31:30;8.55;;;3.45;;
76176;SDS011;64938;47.696;8.066;2023-06-14T06:36:33;5.82;;;3.78;;
76176;SDS011;64938;47.696;8.066;2023-06-14T06:39:00;8.70;;;3.90;;
76176;SDS011;64938;47.696;8.066;2023-06-14T06:41:26;4.47;;;3.47;;
76176;SDS011;64938;47.696;8.066;2023-06-14T06:43:52;4.15;;;3.45;;
76176;SDS011;64938;47.696;8.066;2023-06-14T06:46:20;4.32;;;3.92;;
76176;SDS011;64938;47.696;8.066;2023-06-14T06:48:46;4.18;;;3.75;;
76176;SDS011;64938;47.696;8.066;2023-06-14T06:51:11;4.00;;;3.58;;
76176;SDS011;64938;47.696;8.066;2023-06-14T06:53:41;3.67;;;3.15;;
76176;SDS011;64938;47.696;8.066;2023-06-14T06:56:08;3.47;;;3.15;;
76176;SDS011;64938;47.696;8.066;2023-06-14T06:58:33;3.75;;;3.13;;
76176;SDS011;64938;47.696;8.066;2023-06-14T07:00:59;4.43;;;3.53;;
76176;SDS011;64938;47.696;8.066;2023-06-14T07:03:25;4.25;;;3.95;;
76176;SDS011;64938;47.696;8.066;2023-06-14T07:05:51;3.55;;;3.10;;
76176;SDS011;64938;47.696;8.066;2023-06-14T07:08:17;3.95;;;3.55;;
76176;SDS011;64938;47.696;8.066;2023-06-14T07:10:43;3.92;;;3.63;;
76176;SDS011;64938;47.696;8.066;2023-06-14T07:13:08;3.50;;;3.17;;
76176;SDS011;64938;47.696;8.066;2023-06-14T07:15:34;3.80;;;3.50;;
76176;SDS011;64938;47.696;8.066;2023-06-14T07:17:59;4.35;;;3.05;;
76176;SDS011;64938;47.696;8.066;2023-06-14T07:20:25;3.97;;;3.67;;
76176;SDS011;64938;47.696;8.066;2023-06-14T07:22:51;4.63;;;3.25;;
76176;SDS011;64938;47.696;8.066;2023-06-14T07:25:17;4.32;;;3.92;;
76176;SDS011;64938;47.696;8.066;2023-06-14T07:27:45;3.92;;;3.53;;
76176;SDS011;64938;47.696;8.066;2023-06-14T07:30:15;3.72;;;3.42;;
76176;SDS011;64938;47.696;8.066;2023-06-14T07:32:40;5.22;;;3.22;;
76176;SDS011;64938;47.696;8.066;2023-06-14T07:35:06;3.70;;;3.40;;
76176;SDS011;64938;47.696;8.066;2023-06-14T07:37:32;4.10;;;3.80;;
76176;SDS011;64938;47.696;8.066;2023-06-14T07:39:58;3.92;;;3.50;;
76176;SDS011;64938;47.696;8.066;2023-06-14T07:42:25;5.10;;;3.75;;
76176;SDS011;64938;47.696;8.066;2023-06-14T07:44:57;3.88;;;2.95;;
76176;SDS011;64938;47.696;8.066;2023-06-14T07:47:33;4.38;;;3.97;;
76176;SDS011;64938;47.696;8.066;2023-06-14T07:49:59;6.05;;;2.88;;
76176;SDS011;64938;47.696;8.066;2023-06-14T07:52:28;3.70;;;3.28;;
76176;SDS011;64938;47.696;8.066;2023-06-14T07:54:54;4.65;;;3.53;;
76176;SDS011;64938;47.696;8.066;2023-06-14T07:57:20;3.42;;;3.13;;
76176;SDS011;64938;47.696;8.066;2023-06-14T07:59:45;3.15;;;2.95;;
76176;SDS011;64938;47.696;8.066;2023-06-14T08:02:11;4.07;;;3.65;;
76176;SDS011;64938;47.696;8.066;2023-06-14T08:04:37;6.00;;;3.45;;
76176;SDS011;64938;47.696;8.066;2023-06-14T08:07:03;5.40;;;3.58;;
76176;SDS011;64938;47.696;8.066;2023-06-14T08:09:29;3.47;;;3.22;;
76176;SDS011;64938;47.696;8.066;2023-06-14T08:11:55;4.78;;;3.30;;
76176;SDS011;64938;47.696;8.066;2023-06-14T08:14:21;3.78;;;3.47;;
76176;SDS011;64938;47.696;8.066;2023-06-14T08:16:46;4.53;;;3.40;;
76176;SDS011;64938;47.696;8.066;2023-06-14T08:19:12;5.72;;;3.80;;
76176;SDS011;64938;47.696;8.066;2023-06-14T08:21:39;4.03;;;3.72;;
76176;SDS011;64938;47.696;8.066;2023-06-14T08:24:05;3.70;;;3.40;;
76176;SDS011;64938;47.696;8.066;2023-06-14T08:26:32;4.65;;;3.67;;
76176;SDS011;64938;47.696;8.066;2023-06-14T08:28:58;4.40;;;3.90;;
76176;SDS011;64938;47.696;8.066;2023-06-14T08:31:26;3.72;;;3.40;;
76176;SDS011;64938;47.696;8.066;2023-06-14T08:33:55;3.95;;;3.47;;
76176;SDS011;64938;47.696;8.066;2023-06-14T08:36:21;3.70;;;3.40;;
76176;SDS011;64938;47.696;8.066;2023-06-14T08:38:48;4.93;;;3.60;;
76176;SDS011;64938;47.696;8.066;2023-06-14T08:41:13;4.35;;;3.70;;
76176;SDS011;64938;47.696;8.066;2023-06-14T08:43:52;4.70;;;4.28;;
76176;SDS011;64938;47.696;8.066;2023-06-14T08:46:18;4.28;;;3.88;;
76176;SDS011;64938;47.696;8.066;2023-06-14T08:48:51;4.60;;;3.65;;
76176;SDS011;64938;47.696;8.066;2023-06-14T08:51:20;4.40;;;4.00;;
76176;SDS011;64938;47.696;8.066;2023-06-14T08:53:50;3.65;;;3.35;;
76176;SDS011;64938;47.696;8.066;2023-06-14T08:56:19;4.38;;;4.03;;
76176;SDS011;64938;47.696;8.066;2023-06-14T08:58:53;7.25;;;4.15;;
76176;SDS011;64938;47.696;8.066;2023-06-14T09:01:22;5.35;;;4.20;;
76176;SDS011;64938;47.696;8.066;2023-06-14T09:03:49;3.90;;;3.60;;
76176;SDS011;64938;47.696;8.066;2023-06-14T09:06:15;4.55;;;3.95;;
76176;SDS011;64938;47.696;8.066;2023-06-14T09:08:44;5.18;;;4.78;;
76176;SDS011;64938;47.696;8.066;2023-06-14T09:11:14;5.07;;;4.57;;
76176;SDS011;64938;47.696;8.066;2023-06-14T09:13:41;5.28;;;4.70;;
76176;SDS011;64938;47.696;8.066;2023-06-14T09:16:07;5.15;;;4.65;;
76176;SDS011;64938;47.696;8.066;2023-06-14T09:18:37;4.70;;;4.20;;
76176;SDS011;64938;47.696;8.066;2023-06-14T09:21:07;5.03;;;4.63;;
76176;SDS011;64938;47.696;8.066;2023-06-14T09:23:35;5.30;;;4.80;;
76176;SDS011;64938;47.696;8.066;2023-06-14T09:26:11;5.50;;;4.90;;
76176;SDS011;64938;47.696;8.066;2023-06-14T09:28:43;6.53;;;4.88;;
76176;SDS011;64938;47.696;8.066;2023-06-14T09:31:16;14.65;;;5.75;;
76176;SDS011;64938;47.696;8.066;2023-06-14T09:33:43;7.30;;;4.53;;
76176;SDS011;64938;47.696;8.066;2023-06-14T09:36:23;5.32;;;4.82;;
76176;SDS011;64938;47.696;8.066;2023-06-14T09:38:51;6.03;;;4.55;;
76176;SDS011;64938;47.696;8.066;2023-06-14T09:41:18;9.15;;;4.65;;
76176;SDS011;64938;47.696;8.066;2023-06-14T09:43:47;7.32;;;4.80;;
76176;SDS011;64938;47.696;8.066;2023-06-14T09:46:13;5.20;;;4.68;;
76176;SDS011;64938;47.696;8.066;2023-06-14T09:48:38;5.28;;;4.85;;
76176;SDS011;64938;47.696;8.066;2023-06-14T09:51:09;5.50;;;4.90;;
76176;SDS011;64938;47.696;8.066;2023-06-14T09:53:38;6.97;;;5.43;;
76176;SDS011;64938;47.696;8.066;2023-06-14T09:56:05;7.90;;;4.53;;
76176;SDS011;64938;47.696;8.066;2023-06-14T09:58:31;5.55;;;4.60;;
76176;SDS011;64938;47.696;8.066;2023-06-14T10:01:00;5.45;;;4.60;;
76176;SDS011;64938;47.696;8.066;2023-06-14T10:03:29;6.60;;;5.40;;
76176;SDS011;64938;47.696;8.066;2023-06-14T10:05:58;8.48;;;5.03;;
76176;SDS011;64938;47.696;8.066;2023-06-14T10:08:30;4.88;;;4.47;;
76176;SDS011;64938;47.696;8.066;2023-06-14T10:10:57;4.93;;;4.50;;
76176;SDS011;64938;47.696;8.066;2023-06-14T10:13:26;5.65;;;4.85;;
76176;SDS011;64938;47.696;8.066;2023-06-14T10:18:43;6.32;;;5.30;;
76176;SDS011;64938;47.696;8.066;2023-06-14T10:21:16;5.15;;;4.75;;
76176;SDS011;64938;47.696;8.066;2023-06-14T10:23:47;4.95;;;4.50;;
76176;SDS011;64938;47.696;8.066;2023-06-14T10:26:20;6.07;;;4.40;;
76176;SDS011;64938;47.696;8.066;2023-06-14T10:29:08;5.72;;;5.22;;
76176;SDS011;64938;47.696;8.066;2023-06-14T10:31:40;5.78;;;4.95;;
76176;SDS011;64938;47.696;8.066;2023-06-14T10:34:09;5.40;;;5.00;;
76176;SDS011;64938;47.696;8.066;2023-06-14T10:36:35;5.05;;;4.63;;
76176;SDS011;64938;47.696;8.066;2023-06-14T10:41:38;5.15;;;4.75;;
76176;SDS011;64938;47.696;8.066;2023-06-14T10:44:38;5.30;;;4.80;;
76176;SDS011;64938;47.696;8.066;2023-06-14T10:47:00;4.80;;;4.28;;
76176;SDS011;64938;47.696;8.066;2023-06-14T10:49:39;4.80;;;4.40;;
76176;SDS011;64938;47.696;8.066;2023-06-14T10:52:12;5.75;;;4.70;;
76176;SDS011;64938;47.696;8.066;2023-06-14T10:54:58;7.93;;;5.20;;
76176;SDS011;64938;47.696;8.066;2023-06-14T10:57:41;6.10;;;5.00;;
76176;SDS011;64938;47.696;8.066;2023-06-14T11:00:08;6.72;;;5.07;;
76176;SDS011;64938;47.696;8.066;2023-06-14T11:05:14;4.53;;;4.13;;
76176;SDS011;64938;47.696;8.066;2023-06-14T11:07:47;5.20;;;4.80;;
76176;SDS011;64938;47.696;8.066;2023-06-14T11:13:06;4.70;;;4.30;;
76176;SDS011;64938;47.696;8.066;2023-06-14T11:15:32;8.57;;;5.32;;
76176;SDS011;64938;47.696;8.066;2023-06-14T11:18:03;4.82;;;4.32;;
76176;SDS011;64938;47.696;8.066;2023-06-14T11:20:31;4.80;;;4.40;;
76176;SDS011;64938;47.696;8.066;2023-06-14T11:22:58;4.90;;;4.50;;
76176;SDS011;64938;47.696;8.066;2023-06-14T11:25:27;5.15;;;4.45;;
76176;SDS011;64938;47.696;8.066;2023-06-14T11:27:56;5.20;;;4.70;;
76176;SDS011;64938;47.696;8.066;2023-06-14T11:30:25;5.25;;;4.38;;
76176;SDS011;64938;47.696;8.066;2023-06-14T11:32:52;4.60;;;4.13;;
76176;SDS011;64938;47.696;8.066;2023-06-14T11:35:22;5.68;;;4.75;;
76176;SDS011;64938;47.696;8.066;2023-06-14T11:37:49;4.80;;;4.28;;
76176;SDS011;64938;47.696;8.066;2023-06-14T11:40:18;5.15;;;4.60;;
76176;SDS011;64938;47.696;8.066;2023-06-14T11:42:43;4.95;;;4.22;;
76176;SDS011;64938;47.696;8.066;2023-06-14T11:45:11;4.22;;;3.92;;
76176;SDS011;64938;47.696;8.066;2023-06-14T11:47:39;5.10;;;4.60;;
76176;SDS011;64938;47.696;8.066;2023-06-14T11:50:05;5.00;;;4.60;;
76176;SDS011;64938;47.696;8.066;2023-06-14T11:52:33;5.07;;;4.57;;
76176;SDS011;64938;47.696;8.066;2023-06-14T11:55:02;4.63;;;4.22;;
76176;SDS011;64938;47.696;8.066;2023-06-14T11:57:35;4.72;;;4.32;;
76176;SDS011;64938;47.696;8.066;2023-06-14T12:00:06;4.50;;;4.10;;
76176;SDS011;64938;47.696;8.066;2023-06-14T12:02:40;4.60;;;4.20;;
76176;SDS011;64938;47.696;8.066;2023-06-14T12:05:08;5.05;;;4.65;;
76176;SDS011;64938;47.696;8.066;2023-06-14T12:07:38;4.65;;;4.35;;
76176;SDS011;64938;47.696;8.066;2023-06-14T12:10:07;5.20;;;4.70;;
76176;SDS011;64938;47.696;8.066;2023-06-14T12:12:36;5.80;;;4.63;;
76176;SDS011;64938;47.696;8.066;2023-06-14T12:15:06;4.82;;;4.50;;
76176;SDS011;64938;47.696;8.066;2023-06-14T12:17:33;5.20;;;4.80;;
76176;SDS011;64938;47.696;8.066;2023-06-14T12:20:10;4.78;;;4.38;;
76176;SDS011;64938;47.696;8.066;2023-06-14T12:23:14;4.95;;;4.55;;
76176;SDS011;64938;47.696;8.066;2023-06-14T12:25:35;6.95;;;5.38;;
76176;SDS011;64938;47.696;8.066;2023-06-14T12:28:12;5.50;;;5.03;;
76176;SDS011;64938;47.696;8.066;2023-06-14T12:30:38;4.60;;;4.20;;
76176;SDS011;64938;47.696;8.066;2023-06-14T12:33:04;6.38;;;4.97;;
76176;SDS011;64938;47.696;8.066;2023-06-14T12:35:30;7.45;;;5.15;;
76176;SDS011;64938;47.696;8.066;2023-06-14T12:37:56;5.88;;;4.53;;
76176;SDS011;64938;47.696;8.066;2023-06-14T12:40:23;4.70;;;4.40;;
76176;SDS011;64938;47.696;8.066;2023-06-14T12:42:50;7.38;;;4.75;;
76176;SDS011;64938;47.696;8.066;2023-06-14T12:45:22;4.90;;;4.30;;
76176;SDS011;64938;47.696;8.066;2023-06-14T12:47:48;6.93;;;5.20;;
76176;SDS011;64938;47.696;8.066;2023-06-14T12:50:14;4.80;;;4.40;;
76176;SDS011;64938;47.696;8.066;2023-06-14T12:52:40;4.68;;;4.22;;
76176;SDS011;64938;47.696;8.066;2023-06-14T12:55:05;5.22;;;4.03;;
76176;SDS011;64938;47.696;8.066;2023-06-14T12:57:31;6.20;;;4.80;;
76176;SDS011;64938;47.696;8.066;2023-06-14T12:59:59;4.90;;;4.50;;
76176;SDS011;64938;47.696;8.066;2023-06-14T13:02:25;4.82;;;4.30;;
76176;SDS011;64938;47.696;8.066;2023-06-14T13:04:51;9.82;;;4.88;;
76176;SDS011;64938;47.696;8.066;2023-06-14T13:07:19;5.50;;;4.95;;
76176;SDS011;64938;47.696;8.066;2023-06-14T13:09:47;6.20;;;4.80;;
76176;SDS011;64938;47.696;8.066;2023-06-14T13:12:12;6.78;;;5.00;;
76176;SDS011;64938;47.696;8.066;2023-06-14T13:14:38;4.63;;;4.32;;
76176;SDS011;64938;47.696;8.066;2023-06-14T13:17:05;5.10;;;4.60;;
76176;SDS011;64938;47.696;8.066;2023-06-14T13:19:33;4.60;;;4.20;;
76176;SDS011;64938;47.696;8.066;2023-06-14T13:22:00;4.95;;;4.55;;
76176;SDS011;64938;47.696;8.066;2023-06-14T13:24:28;6.10;;;4.65;;
76176;SDS011;64938;47.696;8.066;2023-06-14T13:26:55;7.35;;;5.05;;
76176;SDS011;64938;47.696;8.066;2023-06-14T13:29:22;5.90;;;5.28;;
76176;SDS011;64938;47.696;8.066;2023-06-14T13:31:48;5.65;;;5.15;;
76176;SDS011;64938;47.696;8.066;2023-06-14T13:34:14;5.97;;;5.30;;
76176;SDS011;64938;47.696;8.066;2023-06-14T13:36:40;5.88;;;4.75;;
76176;SDS011;64938;47.696;8.066;2023-06-14T13:39:05;5.47;;;4.60;;
76176;SDS011;64938;47.696;8.066;2023-06-14T13:41:31;6.63;;;4.72;;
76176;SDS011;64938;47.696;8.066;2023-06-14T13:43:59;5.50;;;4.82;;
76176;SDS011;64938;47.696;8.066;2023-06-14T13:46:25;5.22;;;4.47;;
76176;SDS011;64938;47.696;8.066;2023-06-14T13:48:51;5.50;;;5.00;;
76176;SDS011;64938;47.696;8.066;2023-06-14T13:51:17;5.20;;;4.70;;
76176;SDS011;64938;47.696;8.066;2023-06-14T13:53:48;5.15;;;4.75;;
76176;SDS011;64938;47.696;8.066;2023-06-14T13:56:16;6.22;;;5.20;;
76176;SDS011;64938;47.696;8.066;2023-06-14T13:58:42;5.30;;;4.90;;
76176;SDS011;64938;47.696;8.066;2023-06-14T14:01:12;6.43;;;5.32;;
76176;SDS011;64938;47.696;8.066;2023-06-14T14:03:41;5.05;;;4.75;;
76176;SDS011;64938;47.696;8.066;2023-06-14T14:06:08;5.80;;;5.25;;
76176;SDS011;64938;47.696;8.066;2023-06-14T14:08:40;5.10;;;4.60;;
76176;SDS011;64938;47.696;8.066;2023-06-14T14:11:06;5.80;;;5.40;;
76176;SDS011;64938;47.696;8.066;2023-06-14T14:13:33;4.93;;;4.53;;
76176;SDS011;64938;47.696;8.066;2023-06-14T14:15:59;5.28;;;4.88;;
76176;SDS011;64938;47.696;8.066;2023-06-14T14:18:25;5.35;;;4.95;;
76176;SDS011;64938;47.696;8.066;2023-06-14T14:20:50;5.15;;;4.75;;
76176;SDS011;64938;47.696;8.066;2023-06-14T14:23:16;7.03;;;4.82;;
76176;SDS011;64938;47.696;8.066;2023-06-14T14:25:44;4.88;;;4.47;;
76176;SDS011;64938;47.696;8.066;2023-06-14T14:28:09;5.60;;;5.20;;
76176;SDS011;64938;47.696;8.066;2023-06-14T14:30:42;11.00;;;5.45;;
76176;SDS011;64938;47.696;8.066;2023-06-14T14:33:08;21.30;;;6.20;;
76176;SDS011;64938;47.696;8.066;2023-06-14T14:35:36;7.70;;;4.53;;
76176;SDS011;64938;47.696;8.066;2023-06-14T14:38:04;5.65;;;4.80;;
76176;SDS011;64938;47.696;8.066;2023-06-14T14:40:30;5.75;;;4.93;;
76176;SDS011;64938;47.696;8.066;2023-06-14T14:42:55;5.72;;;5.22;;
76176;SDS011;64938;47.696;8.066;2023-06-14T14:45:23;6.68;;;5.10;;
76176;SDS011;64938;47.696;8.066;2023-06-14T14:48:46;4.80;;;4.40;;
76176;SDS011;64938;47.696;8.066;2023-06-14T14:51:12;5.82;;;4.80;;
76176;SDS011;64938;47.696;8.066;2023-06-14T14:53:37;5.43;;;5.03;;
76176;SDS011;64938;47.696;8.066;2023-06-14T14:56:03;5.30;;;4.90;;
76176;SDS011;64938;47.696;8.066;2023-06-14T14:58:29;5.40;;;4.80;;
76176;SDS011;64938;47.696;8.066;2023-06-14T15:00:54;9.48;;;4.90;;
76176;SDS011;64938;47.696;8.066;2023-06-14T15:03:20;6.03;;;5.47;;
76176;SDS011;64938;47.696;8.066;2023-06-14T15:05:46;5.50;;;4.93;;
76176;SDS011;64938;47.696;8.066;2023-06-14T15:08:13;5.07;;;4.57;;